Time;durP1;ratioP1;P1;durP2;ratioP2;P2;SDS_P1;SDS_P2;PMS_P1;PMS_P2;Temp;Humidity;BMP_temperature;BMP_pressure;BME280_temperature;BME280_humidity;BME280_pressure;Samples;Min_cycle;Max_cycle;Signal;HPM_P1;HPM_P2
2024/01/27 00:03:14;;;;;;;23.05;11.02;;;;;;;4.60;100.00;102722.22;10229199;28;20114;-73
2024/01/27 00:08:10;;;;;;;23.35;10.18;;;;;;;4.63;100.00;102719.03;10221427;28;20038;-74
2024/01/27 00:13:07;;;;;;;24.95;11.38;;;;;;;4.64;100.00;102717.97;10207653;28;20041;-74
2024/01/27 00:18:04;;;;;;;22.48;10.15;;;;;;;4.60;100.00;102722.22;10205384;28;20049;-73
2024/01/27 00:23:00;;;;;;;23.02;10.32;;;;;;;4.58;100.00;102718.91;10220195;28;20575;-73
2024/01/27 00:27:57;;;;;;;29.48;9.93;;;;;;;4.62;100.00;102720.13;10225557;28;20052;-75
2024/01/27 00:32:53;;;;;;;25.17;10.50;;;;;;;4.71;100.00;102735.00;10236325;28;20044;-72
2024/01/27 00:37:50;;;;;;;37.90;11.82;;;;;;;4.73;100.00;102729.34;10236024;28;20428;-72
2024/01/27 00:42:47;;;;;;;24.05;10.80;;;;;;;4.75;100.00;102736.16;10235400;28;20053;-72
2024/01/27 00:47:44;;;;;;;27.80;10.15;;;;;;;4.77;100.00;102747.63;10227437;28;20038;-74
2024/01/27 00:52:40;;;;;;;20.27;10.00;;;;;;;4.78;100.00;102749.28;10236284;28;20041;-73
2024/01/27 00:57:38;;;;;;;28.48;11.32;;;;;;;4.80;100.00;102760.72;10222084;28;20444;-73
2024/01/27 01:02:35;;;;;;;32.80;9.75;;;;;;;4.84;100.00;102759.19;10235161;28;20041;-73
2024/01/27 01:07:31;;;;;;;27.92;10.23;;;;;;;4.85;100.00;102769.00;10234375;28;20427;-74
2024/01/27 01:12:28;;;;;;;22.73;10.57;;;;;;;4.87;100.00;102770.63;10221621;28;20044;-74
2024/01/27 01:17:24;;;;;;;23.98;11.00;;;;;;;4.85;100.00;102763.56;10233362;28;20042;-73
2024/01/27 01:22:21;;;;;;;22.65;10.02;;;;;;;4.87;100.00;102770.63;10218962;28;20104;-74
2024/01/27 01:27:18;;;;;;;18.80;10.35;;;;;;;4.88;100.00;102777.72;10203043;28;20537;-74
2024/01/27 01:32:15;;;;;;;28.48;11.98;;;;;;;4.85;100.00;102784.44;10194364;28;20567;-75
2024/01/27 01:37:13;;;;;;;24.20;11.30;;;;;;;4.90;100.00;102791.84;10209342;28;20038;-74
2024/01/27 01:42:09;;;;;;;21.90;10.80;;;;;;;4.92;100.00;102796.03;10233611;28;20095;-73
2024/01/27 01:47:07;;;;;;;30.48;10.35;;;;;;;4.96;100.00;102815.34;10232748;28;20049;-75
2024/01/27 01:52:04;;;;;;;35.05;10.82;;;;;;;4.97;100.00;102825.97;10231675;28;20044;-73
2024/01/27 01:57:03;;;;;;;30.25;11.63;;;;;;;4.98;100.00;102832.22;10227280;28;20043;-73
2024/01/27 02:01:59;;;;;;;24.13;10.68;;;;;;;4.98;100.00;102833.03;10230581;28;20508;-74
2024/01/27 02:06:56;;;;;;;21.35;11.45;;;;;;;4.96;100.00;102842.47;10230787;28;20222;-73
2024/01/27 02:11:52;;;;;;;29.33;11.27;;;;;;;4.94;100.00;102852.69;10231606;28;20550;-73
2024/01/27 02:16:49;;;;;;;33.42;11.65;;;;;;;4.93;100.00;102845.63;10231504;28;20049;-74
2024/01/27 02:21:45;;;;;;;25.00;10.18;;;;;;;5.00;100.00;102857.22;10228101;28;20045;-74
2024/01/27 02:26:42;;;;;;;29.23;10.73;;;;;;;4.96;100.00;102850.59;10226714;28;20095;-73
2024/01/27 02:31:39;;;;;;;29.73;10.35;;;;;;;5.05;100.00;102855.47;10201420;28;20505;-74
2024/01/27 02:36:35;;;;;;;23.60;11.13;;;;;;;5.05;100.00;102860.06;10204163;28;20048;-75
2024/01/27 02:41:37;;;;;;;30.85;10.63;;;;;;;4.98;100.00;102870.19;10225288;28;20050;-72
2024/01/27 02:46:34;;;;;;;26.17;11.52;;;;;;;4.99;100.00;102855.53;10230740;28;20505;-74
2024/01/27 02:51:30;;;;;;;27.63;12.10;;;;;;;4.99;100.00;102871.81;10231196;28;20045;-74
2024/01/27 02:56:27;;;;;;;22.83;10.65;;;;;;;4.99;100.00;102871.81;10230770;28;20096;-73
2024/01/27 03:01:24;;;;;;;24.63;11.40;;;;;;;4.98;100.00;102881.03;10222175;28;20045;-74
2024/01/27 03:06:21;;;;;;;26.75;10.98;;;;;;;4.95;100.00;102881.47;10225022;28;20600;-74
2024/01/27 03:11:17;;;;;;;31.10;11.65;;;;;;;4.83;100.00;102879.53;10217324;28;20075;-75
2024/01/27 03:16:14;;;;;;;39.22;12.52;;;;;;;4.85;100.00;102888.25;10228257;28;20111;-74
2024/01/27 03:21:11;;;;;;;28.48;11.60;;;;;;;4.77;100.00;102891.25;10229298;28;20197;-73
2024/01/27 03:26:07;;;;;;;31.98;12.25;;;;;;;4.73;100.00;102884.63;10220892;28;20053;-73
2024/01/27 03:31:04;;;;;;;31.15;12.40;;;;;;;4.77;100.00;102902.09;10228018;28;20044;-74
2024/01/27 03:36:00;;;;;;;24.42;11.55;;;;;;;4.77;100.00;102902.09;10227341;28;20045;-75
2024/01/27 03:40:58;;;;;;;29.05;12.52;;;;;;;4.66;100.00;102900.13;10225352;28;20065;-72
2024/01/27 03:45:55;;;;;;;24.00;12.40;;;;;;;4.69;100.00;102899.69;10224415;28;20045;-73
2024/01/27 03:50:51;;;;;;;27.40;12.38;;;;;;;4.69;100.00;102910.53;10234052;28;20049;-74
2024/01/27 03:55:48;;;;;;;30.80;12.95;;;;;;;4.68;100.00;102914.28;10230949;28;20049;-74
2024/01/27 04:00:44;;;;;;;24.02;12.48;;;;;;;4.68;100.00;102922.41;10236611;28;20049;-72
2024/01/27 04:05:41;;;;;;;24.58;11.32;;;;;;;4.65;100.00;102925.59;10227036;28;20133;-73
2024/01/27 04:10:38;;;;;;;29.92;12.00;;;;;;;4.65;100.00;102931.00;10237420;28;20847;-73
2024/01/27 04:15:38;;;;;;;26.73;11.90;;;;;;;4.68;100.00;102935.97;10232617;28;20488;-73
2024/01/27 04:20:35;;;;;;;30.67;12.48;;;;;;;4.68;100.00;102930.53;10234287;28;20056;-74
2024/01/27 04:25:31;;;;;;;31.02;12.57;;;;;;;4.61;100.00;102930.59;10223678;28;20133;-73
2024/01/27 04:30:28;;;;;;;33.95;14.93;;;;;;;4.64;100.00;102937.47;10232363;28;20049;-74
2024/01/27 04:35:24;;;;;;;23.55;12.80;;;;;;;4.49;100.00;102939.72;10231283;28;20047;-72
2024/01/27 04:40:21;;;;;;;20.23;11.65;;;;;;;4.50;100.00;102944.06;10231971;28;20122;-76
2024/01/27 04:45:17;;;;;;;23.75;12.48;;;;;;;4.50;100.00;102954.91;10235371;28;20045;-73
2024/01/27 04:50:14;;;;;;;24.00;12.55;;;;;;;4.42;100.00;102948.72;10233788;28;20429;-73
2024/01/27 04:55:10;;;;;;;26.98;13.15;;;;;;;4.29;100.00;102954.22;10233124;28;20050;-72
2024/01/27 05:00:11;;;;;;;25.88;13.20;;;;;;;4.24;100.00;102945.94;10229974;28;20059;-73
2024/01/27 05:05:08;;;;;;;23.47;13.30;;;;;;;4.15;100.00;102939.13;10232581;28;20488;-72
2024/01/27 05:10:05;;;;;;;31.95;13.73;;;;;;;4.14;100.00;102945.63;10229820;28;20049;-73
2024/01/27 05:15:03;;;;;;;21.67;13.82;;;;;;;4.08;100.00;102941.06;10227076;28;20489;-72
2024/01/27 05:19:59;;;;;;;34.95;16.13;;;;;;;3.99;100.00;102938.66;10233424;28;20147;-74
2024/01/27 05:24:57;;;;;;;42.03;15.70;;;;;;;3.99;100.00;102927.81;10234326;28;20042;-73
2024/01/27 05:29:53;;;;;;;32.28;14.98;;;;;;;3.76;100.00;102941.06;10228839;28;20049;-73
2024/01/27 05:34:50;;;;;;;26.38;15.25;;;;;;;3.63;100.00;102928.47;10233679;28;20077;-72
2024/01/27 05:39:46;;;;;;;31.88;14.88;;;;;;;3.55;100.00;102942.22;10233944;28;20209;-72
2024/01/27 05:44:43;;;;;;;27.55;14.48;;;;;;;3.48;100.00;102942.28;10230372;28;20444;-73
2024/01/27 05:49:39;;;;;;;34.00;14.57;;;;;;;3.47;100.00;102940.59;10233689;28;20483;-74
2024/01/27 05:54:37;;;;;;;35.00;15.60;;;;;;;3.41;100.00;102941.47;10232731;28;20048;-74
2024/01/27 05:59:33;;;;;;;26.88;15.20;;;;;;;3.42;100.00;102932.31;10233392;28;20053;-73
2024/01/27 06:04:31;;;;;;;25.25;14.40;;;;;;;3.58;100.00;102931.81;10232086;28;20049;-73
2024/01/27 06:09:28;;;;;;;27.88;14.27;;;;;;;3.62;100.00;102944.91;10232063;28;20140;-72
2024/01/27 06:14:24;;;;;;;36.03;15.52;;;;;;;3.57;100.00;102946.41;10224281;28;20042;-72
2024/01/27 06:19:21;;;;;;;26.27;14.95;;;;;;;3.59;100.00;102955.09;10232548;28;20527;-74
2024/01/27 06:24:17;;;;;;;27.55;16.05;;;;;;;3.57;100.00;102957.22;10231785;28;20095;-75
2024/01/27 06:29:14;;;;;;;25.48;15.75;;;;;;;3.58;100.00;102960.75;10231266;28;20053;-72
2024/01/27 06:34:10;;;;;;;31.42;16.50;;;;;;;3.39;100.00;102962.50;10230633;28;20052;-73
2024/01/27 06:39:07;;;;;;;39.00;15.85;;;;;;;3.29;100.00;102960.22;10225820;28;20068;-73
2024/01/27 06:44:04;;;;;;;37.00;15.95;;;;;;;3.27;100.00;102972.31;10229087;28;20552;-73
2024/01/27 06:49:01;;;;;;;25.60;16.27;;;;;;;3.20;100.00;102976.91;10222931;28;20045;-74
2024/01/27 06:53:58;;;;;;;36.13;15.23;;;;;;;3.09;100.00;102984.66;10229696;28;20440;-72
2024/01/27 06:58:55;;;;;;;25.77;15.80;;;;;;;3.02;100.00;102981.13;10231260;28;20076;-74
2024/01/27 07:03:51;;;;;;;27.80;16.08;;;;;;;2.97;100.00;102994.47;10230206;28;20052;-73
2024/01/27 07:08:49;;;;;;;22.23;14.80;;;;;;;2.92;100.00;102999.63;10234607;28;20045;-73
2024/01/27 07:13:46;;;;;;;33.15;14.73;;;;;;;2.85;100.00;102996.13;10230786;28;20123;-73
2024/01/27 07:18:42;;;;;;;29.65;14.77;;;;;;;2.80;100.00;103001.31;10226859;28;20052;-73
2024/01/27 07:23:39;;;;;;;28.17;15.60;;;;;;;2.70;100.00;103005.28;10220194;28;20420;-74
2024/01/27 07:28:36;;;;;;;28.88;15.35;;;;;;;2.69;100.00;102990.13;10227181;28;20041;-74
2024/01/27 07:33:32;;;;;;;27.75;15.70;;;;;;;2.62;100.00;103005.50;10211433;28;20481;-75
2024/01/27 07:38:29;;;;;;;29.52;15.68;;;;;;;2.61;100.00;103017.34;10228746;28;20076;-72
2024/01/27 07:43:26;;;;;;;27.42;15.50;;;;;;;2.59;100.00;103018.59;10223513;28;20052;-73
2024/01/27 07:48:23;;;;;;;28.58;14.60;;;;;;;2.56;100.00;103025.25;10224823;28;20559;-74
2024/01/27 07:53:20;;;;;;;24.25;14.55;;;;;;;2.61;100.00;103044.34;10224110;28;20052;-74
2024/01/27 07:58:16;;;;;;;18.88;14.48;;;;;;;2.61;100.00;103036.25;10220188;28;20045;-75
2024/01/27 08:03:13;;;;;;;28.75;14.85;;;;;;;2.61;100.00;103032.72;10229409;28;20497;-74
2024/01/27 08:08:09;;;;;;;25.38;15.60;;;;;;;2.62;100.00;103035.22;10229672;28;20441;-74
2024/01/27 08:13:07;;;;;;;27.35;14.07;;;;;;;2.64;100.00;103033.13;10225221;28;20046;-76
2024/01/27 08:18:03;;;;;;;16.77;14.30;;;;;;;2.72;100.00;103043.72;10228125;28;20057;-74
2024/01/27 08:23:00;;;;;;;34.42;15.13;;;;;;;2.74;100.00;103051.63;10228135;28;20038;-73
2024/01/27 08:28:00;;;;;;;27.27;15.90;;;;;;;2.80;100.00;103063.47;10223625;28;20054;-71
2024/01/27 08:32:57;;;;;;;26.48;15.98;;;;;;;2.76;100.00;103054.09;10219344;28;20444;-75
2024/01/27 08:37:54;;;;;;;28.65;15.40;;;;;;;2.74;100.00;103057.88;10230226;28;20098;-75
2024/01/27 08:42:50;;;;;;;27.55;16.73;;;;;;;2.81;100.00;103067.81;10236007;28;20443;-72
2024/01/27 08:47:46;;;;;;;22.80;14.60;;;;;;;2.81;100.00;103084.03;10229937;28;20053;-73
2024/01/27 08:52:43;;;;;;;21.65;14.50;;;;;;;2.85;100.00;103101.50;10235205;28;20080;-73
2024/01/27 08:57:40;;;;;;;20.23;14.38;;;;;;;2.89;100.00;103110.84;10234786;28;20111;-73
2024/01/27 09:02:36;;;;;;;21.65;14.82;;;;;;;3.01;100.00;103120.00;10230549;28;20045;-73
2024/01/27 09:07:34;;;;;;;33.42;13.77;;;;;;;3.06;100.00;103122.91;10235083;28;20406;-73
2024/01/27 09:12:30;;;;;;;21.85;14.27;;;;;;;3.14;100.00;103130.81;10231086;28;20460;-73
2024/01/27 09:17:27;;;;;;;21.77;13.23;;;;;;;3.16;100.00;103128.72;10228848;28;20073;-76
2024/01/27 09:22:24;;;;;;;19.02;13.27;;;;;;;3.26;100.00;103143.69;10234989;28;20562;-72
2024/01/27 09:27:20;;;;;;;18.98;13.40;;;;;;;3.28;100.00;103153.28;10232100;28;20045;-75
2024/01/27 09:32:17;;;;;;;21.42;13.70;;;;;;;3.34;100.00;103148.88;10234137;28;20045;-76
2024/01/27 09:37:13;;;;;;;26.73;13.20;;;;;;;3.47;100.00;103165.09;10231662;28;20064;-75
2024/01/27 09:42:13;;;;;;;31.08;14.88;;;;;;;3.56;100.00;103163.03;10228767;28;20038;-75
2024/01/27 09:47:11;;;;;;;24.20;13.73;;;;;;;3.72;100.00;103180.69;10231724;28;20497;-75
2024/01/27 09:52:08;;;;;;;22.75;12.90;;;;;;;3.91;100.00;103190.63;10228073;28;20053;-76
2024/01/27 09:57:04;;;;;;;21.75;12.88;;;;;;;3.98;100.00;103191.44;10232298;28;20042;-75
2024/01/27 10:02:03;;;;;;;21.58;10.80;;;;;;;4.32;100.00;103192.16;10233408;28;20044;-75
2024/01/27 10:07:00;;;;;;;15.55;10.48;;;;;;;4.73;100.00;103199.00;10230838;28;20045;-72
2024/01/27 10:11:58;;;;;;;15.35;8.35;;;;;;;5.21;100.00;103213.94;10228423;28;20053;-75
2024/01/27 10:16:54;;;;;;;12.13;8.48;;;;;;;5.82;100.00;103228.63;10228013;28;20055;-75
2024/01/27 10:22:02;;;;;;;19.42;8.05;;;;;;;6.03;100.00;103228.22;10232178;28;20501;-75
2024/01/27 10:27:01;;;;;;;16.00;7.68;;;;;;;6.17;100.00;103225.34;10231643;28;20045;-76
2024/01/27 10:32:10;;;;;;;21.50;9.20;;;;;;;5.74;100.00;103226.22;10231667;28;20048;-76
2024/01/27 10:37:07;;;;;;;19.70;8.75;;;;;;;6.14;100.00;103248.38;10228517;28;20049;-75
2024/01/27 10:42:05;;;;;;;23.30;8.90;;;;;;;6.02;100.00;103234.72;10213689;28;20050;-74
2024/01/27 10:47:03;;;;;;;15.40;8.00;;;;;;;6.16;100.00;103240.00;10198474;28;20432;-76
2024/01/27 10:52:04;;;;;;;15.43;8.68;;;;;;;5.84;100.00;103243.63;10199908;28;20103;-75
2024/01/27 10:57:02;;;;;;;16.60;9.23;;;;;;;5.66;100.00;103236.31;10201713;28;20420;-74
2024/01/27 11:02:00;;;;;;;20.20;9.13;;;;;;;5.94;100.00;103237.75;10231163;28;20084;-75
2024/01/27 11:06:56;;;;;;;14.93;8.05;;;;;;;6.33;100.00;103241.03;10228416;28;20562;-76
2024/01/27 11:11:54;;;;;;;13.00;7.03;;;;;;;6.39;100.00;103234.72;10230995;28;20076;-75
2024/01/27 11:16:55;;;;;;;24.92;8.23;;;;;;;6.51;100.00;103232.88;10230004;28;20055;-74
2024/01/27 11:22:02;;;;;;;15.07;7.43;;;;;;;6.59;100.00;103234.47;10229988;28;20049;-75
2024/01/27 11:27:05;;;;;;;18.08;7.03;;;;;;;6.53;100.00;103241.63;10226098;28;20046;-76
2024/01/27 11:32:03;;;;;;;14.60;7.55;;;;;;;6.93;100.00;103256.56;10229534;28;20049;-74
2024/01/27 11:37:10;;;;;;;16.65;6.70;;;;;;;7.53;100.00;103251.03;10229071;28;20049;-75
2024/01/27 11:42:09;;;;;;;17.83;7.30;;;;;;;7.26;100.00;103250.63;10228512;28;20079;-76
2024/01/27 11:47:13;;;;;;;21.08;6.28;;;;;;;7.31;100.00;103252.66;10216497;28;20072;-74
2024/01/27 11:52:09;;;;;;;18.45;6.07;;;;;;;7.07;100.00;103251.78;10213738;28;20068;-75
2024/01/27 11:57:06;;;;;;;17.58;6.53;;;;;;;7.15;100.00;103257.72;10182182;28;20054;-74
2024/01/27 12:02:03;;;;;;;18.27;6.38;;;;;;;7.53;100.00;103247.50;10192415;28;20049;-75
2024/01/27 12:06:59;;;;;;;18.05;5.75;;;;;;;7.55;100.00;103258.97;10187511;28;20046;-78
2024/01/27 12:11:56;;;;;;;15.32;7.00;;;;;;;7.14;100.00;103279.72;10211805;28;20136;-76
2024/01/27 12:16:53;;;;;;;9.10;6.10;;;;;;;7.20;100.00;103289.69;10231573;28;20049;-74
2024/01/27 12:21:50;;;;;;;15.98;6.55;;;;;;;7.36;100.00;103288.19;10232395;28;20052;-74
2024/01/27 12:26:46;;;;;;;18.25;6.95;;;;;;;7.90;100.00;103282.69;10235820;28;20052;-74
2024/01/27 12:31:43;;;;;;;19.15;8.35;;;;;;;8.33;100.00;103276.00;10236484;28;20041;-75
2024/01/27 12:36:42;;;;;;;19.60;8.15;;;;;;;8.11;100.00;103268.44;10233246;28;20920;-75
2024/01/27 12:41:38;;;;;;;13.63;6.32;;;;;;;8.09;100.00;103265.13;10228003;28;20136;-75
2024/01/27 12:46:35;;;;;;;16.73;7.03;;;;;;;8.64;100.00;103256.50;10233602;28;20037;-75
2024/01/27 12:51:31;;;;;;;15.90;5.55;;;;;;;8.54;100.00;103261.75;10231368;28;20183;-75
2024/01/27 12:56:28;;;;;;;17.52;6.90;;;;;;;8.14;100.00;103250.78;10234991;28;20408;-74
2024/01/27 13:01:24;;;;;;;13.90;5.13;;;;;;;8.91;100.00;103260.53;10233408;28;20049;-75
2024/01/27 13:06:22;;;;;;;13.55;4.55;;;;;;;9.32;100.00;103244.91;10226513;28;20048;-76
2024/01/27 13:11:20;;;;;;;11.25;4.35;;;;;;;9.60;100.00;103252.16;10231889;28;20041;-74
2024/01/27 13:16:16;;;;;;;12.40;4.35;;;;;;;8.52;100.00;103252.16;10234218;28;20045;-74
2024/01/27 13:21:13;;;;;;;16.92;4.80;;;;;;;8.35;100.00;103258.31;10233626;28;20053;-74
2024/01/27 13:26:09;;;;;;;16.65;4.80;;;;;;;8.39;100.00;103254.06;10233777;28;20071;-74
2024/01/27 13:31:15;;;;;;;16.50;4.53;;;;;;;8.48;100.00;103262.72;10219016;28;20521;-76
2024/01/27 13:36:11;;;;;;;14.95;4.47;;;;;;;8.38;100.00;103262.50;10227965;28;20037;-73
2024/01/27 13:41:08;;;;;;;22.08;4.47;;;;;;;8.66;100.00;103260.88;10208976;28;20044;-73
2024/01/27 13:46:04;;;;;;;11.98;4.88;;;;;;;8.84;100.00;103255.22;10193550;28;20069;-74
2024/01/27 13:51:01;;;;;;;14.68;4.60;;;;;;;9.06;100.00;103258.09;10211703;28;20049;-75
2024/01/27 13:55:57;;;;;;;17.35;5.20;;;;;;;8.81;100.00;103266.63;10197617;28;20042;-74
2024/01/27 14:00:54;;;;;;;17.60;5.95;;;;;;;8.52;100.00;103269.34;10198647;28;20045;-73
2024/01/27 14:05:50;;;;;;;14.60;5.70;;;;;;;8.56;100.00;103270.53;10232417;28;20112;-73
2024/01/27 14:10:50;;;;;;;18.73;5.35;;;;;;;8.25;100.00;103288.09;10239502;28;20049;-74
2024/01/27 14:15:46;;;;;;;13.75;5.75;;;;;;;8.08;100.00;103290.72;10232136;28;20056;-73
2024/01/27 14:20:43;;;;;;;19.55;5.65;;;;;;;8.39;100.00;103283.22;10225713;28;20056;-74
2024/01/27 14:25:39;;;;;;;19.02;6.00;;;;;;;8.13;100.00;103282.66;10229754;28;20064;-75
2024/01/27 14:30:39;;;;;;;21.58;6.72;;;;;;;8.05;100.00;103284.91;10230199;28;20072;-74
2024/01/27 14:35:36;;;;;;;14.68;6.00;;;;;;;7.73;100.00;103283.38;10189295;28;20463;-74
2024/01/27 14:40:33;;;;;;;18.40;5.50;;;;;;;7.54;100.00;103289.97;10186267;28;20041;-75
2024/01/27 14:45:29;;;;;;;22.85;6.50;;;;;;;7.58;100.00;103296.63;10190984;28;20052;-73
2024/01/27 14:50:26;;;;;;;19.23;7.80;;;;;;;7.40;100.00;103310.31;10188578;28;20065;-73
2024/01/27 14:55:23;;;;;;;13.90;7.50;;;;;;;7.28;100.00;103305.66;10190396;28;20050;-75
2024/01/27 15:00:19;;;;;;;20.83;7.95;;;;;;;7.14;100.00;103321.34;10186945;28;20049;-73
2024/01/27 15:05:16;;;;;;;19.10;8.07;;;;;;;6.98;100.00;103302.13;10188990;28;20054;-75
2024/01/27 15:10:12;;;;;;;20.10;8.52;;;;;;;6.81;100.00;103308.19;10181495;28;20049;-73
2024/01/27 15:15:09;;;;;;;20.27;10.18;;;;;;;6.59;100.00;103309.72;10188542;28;20421;-73
2024/01/27 15:20:06;;;;;;;16.25;10.68;;;;;;;6.50;100.00;103307.31;10187525;28;20042;-73
2024/01/27 15:25:03;;;;;;;18.38;10.27;;;;;;;6.42;100.00;103304.91;10185418;28;20058;-76
2024/01/27 15:30:00;;;;;;;19.20;11.23;;;;;;;6.27;100.00;103312.63;10186982;28;20042;-73
2024/01/27 15:34:56;;;;;;;20.60;12.05;;;;;;;6.18;100.00;103314.78;10187514;28;20069;-74
2024/01/27 15:39:53;;;;;;;26.27;14.70;;;;;;;6.05;100.00;103315.72;10189294;28;20053;-75
2024/01/27 15:44:50;;;;;;;23.45;12.23;;;;;;;5.94;100.00;103319.22;10183806;28;20076;-73
2024/01/27 15:49:52;;;;;;;20.23;12.55;;;;;;;5.82;100.00;103320.94;10228370;28;20057;-73
2024/01/27 15:54:49;;;;;;;20.88;13.48;;;;;;;5.80;100.00;103331.19;10191778;28;20046;-73
2024/01/27 15:59:45;;;;;;;19.48;12.45;;;;;;;5.69;100.00;103333.56;10203963;28;20072;-73
2024/01/27 16:04:43;;;;;;;17.50;12.50;;;;;;;5.64;100.00;103341.53;10185377;28;20110;-73
2024/01/27 16:09:46;;;;;;;21.15;13.25;;;;;;;5.59;100.00;103338.66;10188866;28;20076;-76
2024/01/27 16:14:42;;;;;;;22.25;14.20;;;;;;;5.48;100.00;103332.06;10186295;28;20069;-73
2024/01/27 16:19:39;;;;;;;20.30;15.07;;;;;;;5.44;100.00;103335.44;10188797;28;20092;-76
2024/01/27 16:24:36;;;;;;;22.92;13.95;;;;;;;5.47;100.00;103334.97;10188056;28;20046;-73
2024/01/27 16:29:32;;;;;;;19.20;14.95;;;;;;;5.39;100.00;103338.78;10188996;28;20129;-73
2024/01/27 16:34:29;;;;;;;22.17;14.15;;;;;;;5.35;100.00;103336.72;10224981;28;20057;-73
2024/01/27 16:39:25;;;;;;;26.67;15.93;;;;;;;5.32;100.00;103343.44;10228801;28;20136;-73
2024/01/27 16:44:23;;;;;;;18.85;14.30;;;;;;;5.29;100.00;103354.69;10226261;28;20412;-74
2024/01/27 16:49:19;;;;;;;23.95;14.90;;;;;;;5.25;100.00;103354.31;10226905;28;20619;-75
2024/01/27 16:54:17;;;;;;;21.67;14.73;;;;;;;5.20;100.00;103346.00;10225089;28;20046;-73
2024/01/27 16:59:15;;;;;;;21.55;14.68;;;;;;;5.14;100.00;103355.00;10233282;28;20049;-73
2024/01/27 17:04:14;;;;;;;17.08;13.80;;;;;;;5.15;100.00;103347.69;10232304;28;20030;-73
2024/01/27 17:09:13;;;;;;;27.90;14.60;;;;;;;5.11;100.00;103360.88;10233789;28;20493;-73
2024/01/27 17:14:10;;;;;;;16.67;14.35;;;;;;;5.11;100.00;103363.59;10226767;28;20424;-77
2024/01/27 17:19:07;;;;;;;29.52;15.10;;;;;;;5.04;100.00;103351.94;10232875;28;20132;-73
2024/01/27 17:24:04;;;;;;;21.90;15.15;;;;;;;5.00;100.00;103356.13;10229162;28;20084;-75
2024/01/27 17:29:00;;;;;;;21.42;14.73;;;;;;;4.98;100.00;103363.63;10239992;28;20049;-74
2024/01/27 17:33:58;;;;;;;24.77;15.70;;;;;;;4.92;100.00;103367.19;10202864;28;20552;-73
2024/01/27 17:38:55;;;;;;;19.98;14.27;;;;;;;4.89;100.00;103354.06;10203215;28;20042;-73
2024/01/27 17:43:51;;;;;;;27.33;15.73;;;;;;;4.89;100.00;103364.91;10191377;28;20409;-73
2024/01/27 17:48:48;;;;;;;20.50;14.70;;;;;;;4.87;100.00;103357.00;10194080;28;20069;-73
2024/01/27 17:53:45;;;;;;;28.30;15.50;;;;;;;4.88;100.00;103360.56;10203944;28;20062;-73
2024/01/27 17:58:42;;;;;;;22.88;14.50;;;;;;;4.82;100.00;103365.78;10191256;28;20391;-74
2024/01/27 18:03:38;;;;;;;18.02;14.40;;;;;;;4.78;100.00;103359.13;10199413;28;20051;-75
2024/01/27 18:08:35;;;;;;;27.73;14.93;;;;;;;4.78;100.00;103364.56;10183558;28;20053;-73
2024/01/27 18:13:31;;;;;;;26.88;14.50;;;;;;;4.77;100.00;103362.88;10195424;28;20477;-73
2024/01/27 18:18:28;;;;;;;28.58;15.82;;;;;;;4.70;100.00;103366.66;10194882;28;20073;-73
2024/01/27 18:23:25;;;;;;;20.00;15.43;;;;;;;4.68;100.00;103380.41;10202456;28;20038;-74
2024/01/27 18:28:21;;;;;;;20.67;15.77;;;;;;;4.65;100.00;103370.00;10205060;28;20061;-74
2024/01/27 18:33:19;;;;;;;22.17;15.10;;;;;;;4.59;100.00;103376.28;10197806;28;20757;-73
2024/01/27 18:38:16;;;;;;;22.13;15.18;;;;;;;4.55;100.00;103364.19;10195011;28;20464;-72
2024/01/27 18:43:12;;;;;;;20.10;15.25;;;;;;;4.53;100.00;103374.44;10217975;28;20038;-73
2024/01/27 18:48:09;;;;;;;22.20;15.25;;;;;;;4.42;100.00;103371.31;10223079;28;20456;-74
2024/01/27 18:53:06;;;;;;;30.77;15.77;;;;;;;4.38;100.00;103372.75;10215584;28;20037;-73
2024/01/27 18:58:11;;;;;;;20.05;14.85;;;;;;;4.40;100.00;103373.38;10213152;28;20037;-72
2024/01/27 19:03:08;;;;;;;23.13;15.00;;;;;;;4.39;100.00;103371.75;10223069;28;20132;-73
2024/01/27 19:08:06;;;;;;;27.02;14.93;;;;;;;4.40;100.00;103378.81;10223852;28;20051;-73
2024/01/27 19:13:02;;;;;;;23.88;14.45;;;;;;;4.37;100.00;103373.81;10230241;28;20068;-73
2024/01/27 19:17:59;;;;;;;21.15;15.10;;;;;;;4.33;100.00;103388.81;10230293;28;20046;-73
2024/01/27 19:22:55;;;;;;;19.45;14.25;;;;;;;4.28;100.00;103396.75;10229611;28;20133;-74
2024/01/27 19:27:52;;;;;;;22.50;14.68;;;;;;;4.21;100.00;103412.19;10228958;28;20242;-73
2024/01/27 19:32:49;;;;;;;20.85;14.82;;;;;;;4.21;100.00;103407.59;10232878;28;20045;-73
2024/01/27 19:37:46;;;;;;;20.95;15.93;;;;;;;4.18;100.00;103412.59;10231654;28;20045;-72
2024/01/27 19:42:45;;;;;;;22.65;16.80;;;;;;;4.08;100.00;103417.59;10223426;28;20057;-73
2024/01/27 19:47:42;;;;;;;15.27;13.88;;;;;;;4.08;100.00;103425.69;10212762;28;20050;-73
2024/01/27 19:52:38;;;;;;;16.20;14.48;;;;;;;4.04;100.00;103421.75;10188716;28;20052;-75
2024/01/27 19:57:35;;;;;;;18.92;14.52;;;;;;;4.01;100.00;103420.28;10208050;28;20046;-72
2024/01/27 20:02:31;;;;;;;22.70;15.45;;;;;;;3.91;100.00;103418.00;10219019;28;20057;-73
2024/01/27 20:07:31;;;;;;;20.42;15.10;;;;;;;3.89;100.00;103417.34;10224489;28;20053;-74
2024/01/27 20:12:27;;;;;;;21.98;14.90;;;;;;;3.86;100.00;103430.50;10226870;28;20053;-72
2024/01/27 20:17:24;;;;;;;21.92;16.40;;;;;;;3.80;100.00;103415.88;10223171;28;20510;-75
2024/01/27 20:22:20;;;;;;;22.23;14.88;;;;;;;3.90;100.00;103427.16;10225945;28;20111;-74
2024/01/27 20:27:17;;;;;;;20.00;14.38;;;;;;;3.90;100.00;103432.56;10223160;28;20049;-73
2024/01/27 20:32:14;;;;;;;21.73;14.98;;;;;;;3.83;100.00;103430.88;10224560;28;20053;-73
2024/01/27 20:37:10;;;;;;;22.35;14.63;;;;;;;3.80;100.00;103432.13;10236037;28;20045;-73
2024/01/27 20:42:09;;;;;;;22.17;14.68;;;;;;;3.75;100.00;103435.44;10236140;28;20041;-75
2024/01/27 20:47:05;;;;;;;18.80;15.30;;;;;;;3.76;100.00;103430.88;10232805;28;20045;-73
2024/01/27 20:52:02;;;;;;;23.25;15.68;;;;;;;3.79;100.00;103431.31;10234771;28;20041;-73
2024/01/27 20:56:59;;;;;;;21.73;15.07;;;;;;;3.71;100.00;103422.53;10232987;28;20064;-73
2024/01/27 21:02:01;;;;;;;24.50;15.35;;;;;;;3.70;100.00;103437.13;10232903;28;20037;-73
2024/01/27 21:06:58;;;;;;;26.00;16.83;;;;;;;3.66;100.00;103430.44;10230005;28;20132;-73
2024/01/27 21:11:55;;;;;;;25.70;16.00;;;;;;;3.69;100.00;103440.84;10230616;28;20060;-73
2024/01/27 21:16:51;;;;;;;22.75;15.73;;;;;;;3.73;100.00;103442.13;10233431;28;20111;-74
2024/01/27 21:21:48;;;;;;;21.42;15.48;;;;;;;3.77;100.00;103448.78;10232174;28;20052;-73
2024/01/27 21:26:45;;;;;;;15.80;14.18;;;;;;;3.65;100.00;103447.72;10229597;28;20064;-73
2024/01/27 21:31:42;;;;;;;21.20;14.82;;;;;;;3.62;100.00;103434.59;10234781;28;20049;-73
2024/01/27 21:36:38;;;;;;;24.85;15.55;;;;;;;3.62;100.00;103448.13;10233519;28;20049;-75
2024/01/27 21:41:35;;;;;;;22.85;15.48;;;;;;;3.57;100.00;103438.75;10232295;28;20049;-73
2024/01/27 21:46:31;;;;;;;20.25;14.93;;;;;;;3.53;100.00;103429.38;10221722;28;20441;-74
2024/01/27 21:51:28;;;;;;;22.75;15.55;;;;;;;3.54;100.00;103439.16;10213855;28;20045;-72
2024/01/27 21:56:25;;;;;;;24.90;15.68;;;;;;;3.53;100.00;103437.50;10235664;28;20427;-75
2024/01/27 22:01:21;;;;;;;24.83;15.80;;;;;;;3.55;100.00;103437.28;10233852;28;20049;-73
2024/01/27 22:06:18;;;;;;;21.55;15.50;;;;;;;3.46;100.00;103427.66;10229250;28;21013;-74
2024/01/27 22:11:14;;;;;;;29.02;16.20;;;;;;;3.48;100.00;103421.03;10232977;28;20148;-74
2024/01/27 22:16:11;;;;;;;24.95;15.93;;;;;;;3.34;100.00;103424.72;10228402;28;20045;-73
2024/01/27 22:21:08;;;;;;;25.40;16.55;;;;;;;3.26;100.00;103428.44;10231539;28;20115;-72